Terminal Aerodrome Forecast
Issued by NWS North Platte, NE

Home | Current Version | Previous Version | Graphics & Text | Print | Product List | Glossary On
Versions: 1 2 3 4 5 6 7 8 9 10 11 12
000
FTUS43 KLBF 272326
TAFVTN
TAF
KVTN 272326Z 2800/2824 18008KT P6SM FEW250
     FM280100 17006KT P6SM SKC
     FM280700 20007KT P6SM SKC WS010/20035KT
     FM281400 20012KT P6SM SKC=

USA.gov is the U.S. government's official web portal to all federal, state and local government web resources and services.